createdAt,value
2018-11-27T00:00:32.131Z,72.87
2018-11-27T00:03:01.769Z,69.53
2018-11-27T00:05:31.012Z,71.33
2018-11-27T00:07:59.552Z,70.40
2018-11-27T00:10:29.108Z,69.23
2018-11-27T00:12:57.588Z,71.33
2018-11-27T00:15:26.047Z,68.73
2018-11-27T00:17:54.503Z,73.80
2018-11-27T00:20:22.938Z,73.20
2018-11-27T00:22:51.429Z,70.30
2018-11-27T00:25:19.911Z,76.50
2018-11-27T00:27:48.414Z,75.23
2018-11-27T00:30:18.108Z,69.03
2018-11-27T00:32:46.579Z,65.50
2018-11-27T00:35:16.496Z,69.27
2018-11-27T00:37:44.963Z,67.43
2018-11-27T00:40:21.981Z,62.97
2018-11-27T00:42:50.744Z,66.60
2018-11-27T00:45:20.195Z,62.90
2018-11-27T00:47:49.627Z,63.23
2018-11-27T00:50:21.996Z,66.93
2018-11-27T00:52:50.476Z,83.20
2018-11-27T00:55:19.731Z,71.70
2018-11-27T00:57:49.359Z,62.27
2018-11-27T01:00:20.245Z,60.00
2018-11-27T01:02:48.696Z,57.67
2018-11-27T01:05:18.379Z,59.50
2018-11-27T01:07:46.928Z,57.50
2018-11-27T01:10:16.390Z,50.53
2018-11-27T01:12:44.906Z,51.73
2018-11-27T01:15:14.169Z,51.83
2018-11-27T01:17:46.846Z,57.17
2018-11-27T01:20:20.291Z,52.20
2018-11-27T01:22:48.729Z,57.97
2018-11-27T01:25:17.209Z,52.70
2018-11-27T01:27:45.745Z,50.93
2018-11-27T01:30:15.272Z,51.37
2018-11-27T01:32:43.724Z,45.07
2018-11-27T01:35:13.233Z,40.77
2018-11-27T01:37:41.663Z,49.37
2018-11-27T01:40:11.840Z,47.77
2018-11-27T01:42:40.255Z,41.23
2018-11-27T01:45:10.948Z,50.97
2018-11-27T01:47:39.398Z,45.33
2018-11-27T01:50:10.799Z,42.73
2018-11-27T01:52:39.299Z,40.33
2018-11-27T01:55:09.614Z,42.70
2018-11-27T01:57:38.077Z,38.33
2018-11-27T02:00:29.356Z,42.33
2018-11-27T02:02:58.711Z,36.90
2018-11-27T02:05:27.683Z,39.60
2018-11-27T02:07:56.221Z,35.93
2018-11-27T02:10:24.678Z,44.20
2018-11-27T02:12:54.100Z,39.97
2018-11-27T02:15:26.617Z,33.93
2018-11-27T02:17:55.121Z,43.50
2018-11-27T02:20:23.552Z,37.80
2018-11-27T02:22:52.046Z,41.50
2018-11-27T02:25:24.511Z,39.23
2018-11-27T02:27:52.955Z,35.27
2018-11-27T02:30:22.531Z,34.40
2018-11-27T02:32:51.008Z,41.00
2018-11-27T02:35:20.500Z,31.60
2018-11-27T02:37:50.199Z,33.03
2018-11-27T02:40:19.004Z,36.10
2018-11-27T02:42:47.467Z,37.43
2018-11-27T02:45:17.620Z,33.23
2018-11-27T02:47:46.544Z,31.60
2018-11-27T02:50:16.272Z,37.90
2018-11-27T02:52:44.706Z,41.17
2018-11-27T02:55:16.139Z,37.90
2018-11-27T02:57:44.561Z,35.77
2018-11-27T03:00:15.040Z,36.23
2018-11-27T03:02:43.507Z,41.00
2018-11-27T03:05:14.120Z,33.83
2018-11-27T03:07:42.553Z,37.50
2018-11-27T03:10:14.848Z,36.53
2018-11-27T03:12:43.309Z,45.63
2018-11-27T03:15:14.005Z,38.70
2018-11-27T03:17:42.421Z,33.10
2018-11-27T03:20:11.867Z,36.80
2018-11-27T03:22:40.353Z,32.70
2018-11-27T03:25:12.944Z,30.97
2018-11-27T03:27:41.400Z,30.40
2018-11-27T03:30:15.015Z,34.30
2018-11-27T03:32:43.524Z,27.77
2018-11-27T03:35:16.035Z,29.83
2018-11-27T03:37:45.059Z,28.10
2018-11-27T03:40:17.503Z,35.73
2018-11-27T03:42:45.951Z,31.10
2018-11-27T03:45:15.012Z,29.97
2018-11-27T03:47:43.590Z,28.30
2018-11-27T03:50:23.808Z,26.67
2018-11-27T03:52:52.247Z,26.73
2018-11-27T03:55:20.738Z,32.70
2018-11-27T03:57:49.184Z,29.47
2018-11-27T04:00:19.604Z,30.40
2018-11-27T04:02:52.504Z,33.83
2018-11-27T04:05:21.322Z,29.47
2018-11-27T04:07:49.761Z,26.90
2018-11-27T04:10:19.350Z,29.73
2018-11-27T04:12:47.807Z,31.30
2018-11-27T04:15:16.336Z,30.57
2018-11-27T04:17:44.817Z,31.85
2018-11-27T04:20:13.703Z,33.80
2018-11-27T04:22:42.926Z,26.23
2018-11-27T04:25:13.385Z,32.80
2018-11-27T04:27:41.886Z,27.33
2018-11-27T04:30:18.651Z,29.87
2018-11-27T04:32:47.115Z,31.43
2018-11-27T04:35:19.423Z,27.35
2018-11-27T04:37:48.185Z,28.50
2018-11-27T04:40:17.556Z,28.70
2018-11-27T04:42:46.114Z,32.43
2018-11-27T04:45:23.144Z,24.70
2018-11-27T04:47:51.628Z,25.67
2018-11-27T04:50:20.507Z,26.07
2018-11-27T04:52:49.200Z,29.47
2018-11-27T04:55:19.900Z,26.57
2018-11-27T04:57:48.163Z,34.65
2018-11-27T05:00:23.696Z,28.63
2018-11-27T05:02:52.199Z,28.45
2018-11-27T05:05:20.691Z,27.70
2018-11-27T05:07:49.184Z,26.53
2018-11-27T05:10:19.349Z,28.23
2018-11-27T05:12:47.853Z,28.05
2018-11-27T05:15:19.167Z,28.30
2018-11-27T05:17:48.696Z,24.20
2018-11-27T05:20:17.210Z,26.60
2018-11-27T05:22:45.661Z,30.87
2018-11-27T05:25:15.288Z,37.03
2018-11-27T05:27:45.058Z,36.90
2018-11-27T05:30:14.702Z,31.80
2018-11-27T05:32:43.164Z,30.23
2018-11-27T05:35:13.711Z,31.77
2018-11-27T05:37:42.891Z,40.90
2018-11-27T05:40:15.329Z,32.83
2018-11-27T05:42:43.828Z,33.73
2018-11-27T05:45:13.535Z,27.93
2018-11-27T05:47:41.989Z,30.75
2018-11-27T05:50:18.003Z,27.27
2018-11-27T05:52:46.485Z,30.92
2018-11-27T05:55:15.494Z,23.57
2018-11-27T05:57:45.049Z,28.47
2018-11-27T06:00:15.746Z,29.25
2018-11-27T06:02:44.259Z,29.85
2018-11-27T06:05:13.996Z,25.43
2018-11-27T06:07:42.461Z,28.77
2018-11-27T06:10:12.470Z,25.40
2018-11-27T06:12:40.934Z,25.02
2018-11-27T06:15:12.870Z,27.20
2018-11-27T06:17:41.574Z,32.78
2018-11-27T06:20:14.387Z,27.55
2018-11-27T06:22:42.866Z,32.00
2018-11-27T06:25:18.517Z,32.80
2018-11-27T06:27:49.357Z,29.27
2018-11-27T06:30:22.668Z,25.90
2018-11-27T06:32:51.140Z,30.43
2018-11-27T06:35:21.938Z,31.25
2018-11-27T06:37:50.411Z,27.32
2018-11-27T06:40:20.225Z,30.32
2018-11-27T06:42:48.665Z,29.42
2018-11-27T06:45:19.050Z,29.23
2018-11-27T06:47:48.624Z,30.97
2018-11-27T06:50:18.875Z,35.90
2018-11-27T06:52:47.344Z,34.05
2018-11-27T06:55:16.940Z,25.50
2018-11-27T06:57:45.391Z,29.85
2018-11-27T07:00:29.194Z,26.75
2018-11-27T07:02:58.601Z,26.55
2018-11-27T07:05:27.123Z,28.87
2018-11-27T07:07:55.572Z,26.20
2018-11-27T07:10:26.365Z,27.10
2018-11-27T07:13:00.553Z,30.25
2018-11-27T07:15:29.029Z,26.10
2018-11-27T07:17:57.482Z,32.85
2018-11-27T07:20:25.928Z,22.82
2018-11-27T07:22:54.358Z,27.17
2018-11-27T07:25:22.837Z,23.42
2018-11-27T07:27:51.607Z,29.23
2018-11-27T07:30:22.463Z,26.82
2018-11-27T07:32:50.931Z,22.05
2018-11-27T07:35:19.708Z,26.93
2018-11-27T07:37:48.825Z,31.30
2018-11-27T07:40:19.505Z,29.10
2018-11-27T07:42:48.760Z,30.97
2018-11-27T07:45:18.411Z,36.47
2018-11-27T07:47:46.906Z,29.32
2018-11-27T07:50:16.069Z,30.95
2018-11-27T07:52:44.658Z,27.75
2018-11-27T07:55:17.215Z,26.33
2018-11-27T07:57:46.039Z,24.37
2018-11-27T08:00:15.668Z,26.02
2018-11-27T08:02:45.966Z,27.00
2018-11-27T08:05:17.714Z,26.35
2018-11-27T08:07:47.705Z,26.10
2018-11-27T08:10:18.241Z,22.10
2018-11-27T08:12:46.691Z,27.52
2018-11-27T08:15:17.248Z,25.23
2018-11-27T08:17:45.728Z,24.20
2018-11-27T08:20:15.516Z,26.48
2018-11-27T08:22:43.995Z,25.90
2018-11-27T08:25:13.604Z,25.08
2018-11-27T08:27:42.125Z,30.35
2018-11-27T08:30:14.164Z,24.27
2018-11-27T08:32:42.861Z,33.78
2018-11-27T08:35:12.757Z,29.75
2018-11-27T08:37:41.544Z,28.17
2018-11-27T08:40:11.242Z,32.90
2018-11-27T08:42:39.676Z,23.95
2018-11-27T08:45:10.653Z,27.67
2018-11-27T08:47:39.137Z,27.73
2018-11-27T08:50:11.085Z,27.63
2018-11-27T08:52:39.553Z,22.40
2018-11-27T08:55:16.225Z,27.53
2018-11-27T08:57:45.844Z,27.13
2018-11-27T09:00:21.346Z,24.03
2018-11-27T09:02:49.786Z,24.30
2018-11-27T09:05:18.276Z,22.37
2018-11-27T09:07:47.271Z,21.60
2018-11-27T09:10:18.675Z,23.07
2018-11-27T09:12:47.108Z,22.00
2018-11-27T09:15:16.729Z,22.70
2018-11-27T09:17:55.351Z,26.20
2018-11-27T09:20:23.824Z,21.13
2018-11-27T09:22:52.296Z,21.30
2018-11-27T09:25:20.790Z,22.13
2018-11-27T09:27:49.228Z,22.70
2018-11-27T09:30:21.284Z,23.97
2018-11-27T09:32:49.788Z,24.23
2018-11-27T09:35:18.308Z,24.00
2018-11-27T09:37:46.772Z,24.67
2018-11-27T09:40:16.877Z,17.77
2018-11-27T09:42:45.361Z,29.10
2018-11-27T09:45:15.019Z,20.83
2018-11-27T09:47:44.281Z,22.40
2018-11-27T09:50:13.513Z,22.07
2018-11-27T09:52:42.044Z,28.27
2018-11-27T09:55:12.817Z,22.47
2018-11-27T09:57:41.321Z,24.50
2018-11-27T10:00:29.379Z,22.10
2018-11-27T10:02:59.147Z,19.67
2018-11-27T10:05:27.638Z,30.83
2018-11-27T10:07:56.099Z,24.50
2018-11-27T10:10:25.255Z,22.70
2018-11-27T10:12:53.739Z,24.10
2018-11-27T10:15:24.243Z,22.60
2018-11-27T10:17:56.776Z,29.70
2018-11-27T10:20:26.616Z,20.97
2018-11-27T10:22:55.069Z,27.70
2018-11-27T10:25:23.538Z,21.33
2018-11-27T10:27:58.547Z,21.13
2018-11-27T10:30:27.846Z,20.73
2018-11-27T10:32:57.492Z,29.30
2018-11-27T10:35:30.601Z,16.93
2018-11-27T10:37:59.037Z,20.03
2018-11-27T10:40:27.579Z,19.37
2018-11-27T10:42:56.069Z,26.40
2018-11-27T10:45:24.667Z,23.93
2018-11-27T10:47:54.275Z,20.00
2018-11-27T10:50:22.799Z,22.20
2018-11-27T10:52:52.392Z,23.37
2018-11-27T10:55:21.365Z,21.93
2018-11-27T10:57:49.904Z,23.60
2018-11-27T11:00:25.542Z,21.80
2018-11-27T11:02:59.224Z,23.63
2018-11-27T11:05:29.682Z,28.50
2018-11-27T11:07:58.135Z,20.77
2018-11-27T11:10:26.611Z,21.73
2018-11-27T11:12:55.084Z,19.67
2018-11-27T11:15:23.543Z,20.37
2018-11-27T11:17:52.068Z,24.37
2018-11-27T11:20:21.018Z,26.80
2018-11-27T11:22:49.516Z,22.87
2018-11-27T11:25:21.276Z,19.50
2018-11-27T11:27:54.044Z,22.37
2018-11-27T11:30:22.962Z,20.47
2018-11-27T11:32:51.444Z,24.30
2018-11-27T11:35:19.905Z,24.57
2018-11-27T11:37:48.664Z,16.73
2018-11-27T11:40:21.294Z,18.23
2018-11-27T11:42:50.972Z,16.83
2018-11-27T11:45:19.438Z,17.83
2018-11-27T11:47:47.954Z,19.90
2018-11-27T11:50:18.778Z,16.17
2018-11-27T11:52:49.595Z,19.90
2018-11-27T11:55:18.657Z,17.83
2018-11-27T11:57:47.161Z,17.13
2018-11-27T12:00:20.300Z,18.70
2018-11-27T12:02:49.083Z,19.30
2018-11-27T12:05:17.556Z,17.30
2018-11-27T12:07:46.055Z,18.37
2018-11-27T12:10:15.502Z,18.53
2018-11-27T12:12:45.004Z,22.73
2018-11-27T12:15:14.777Z,17.10
2018-11-27T12:17:43.929Z,16.07
2018-11-27T12:20:14.511Z,17.27
2018-11-27T12:22:44.380Z,20.00
2018-11-27T12:25:13.592Z,11.37
2018-11-27T12:27:42.350Z,12.27
2018-11-27T12:30:14.632Z,22.57
2018-11-27T12:32:43.104Z,17.23
2018-11-27T12:35:12.315Z,19.30
2018-11-27T12:37:40.895Z,16.47
2018-11-27T12:40:26.656Z,16.20
2018-11-27T12:42:55.668Z,14.20
2018-11-27T12:45:27.207Z,14.10
2018-11-27T12:47:56.606Z,24.70
2018-11-27T12:50:28.364Z,21.47
2018-11-27T12:52:56.869Z,14.60
2018-11-27T12:55:25.477Z,15.40
2018-11-27T12:57:53.964Z,13.67
2018-11-27T13:00:23.917Z,15.90
2018-11-27T13:02:52.441Z,16.00
2018-11-27T13:05:25.259Z,18.40
2018-11-27T13:07:55.616Z,16.63
2018-11-27T13:10:24.097Z,17.17
2018-11-27T13:12:52.549Z,17.30
2018-11-27T13:15:21.530Z,16.10
2018-11-27T13:17:51.152Z,18.60
2018-11-27T13:20:20.046Z,17.37
2018-11-27T13:22:49.146Z,15.20
2018-11-27T13:25:22.025Z,15.77
2018-11-27T13:27:51.523Z,15.00
2018-11-27T13:30:27.467Z,23.03
2018-11-27T13:32:58.590Z,16.97
2018-11-27T13:35:27.049Z,17.10
2018-11-27T13:37:55.559Z,18.10
2018-11-27T13:40:24.050Z,14.50
2018-11-27T13:42:52.514Z,20.20
2018-11-27T13:45:21.032Z,21.87
2018-11-27T13:47:49.481Z,15.47
2018-11-27T13:50:18.075Z,30.10
2018-11-27T13:52:46.588Z,14.90
2018-11-27T13:55:17.461Z,18.00
2018-11-27T13:57:45.973Z,18.60
2018-11-27T14:00:15.560Z,16.43
2018-11-27T14:02:46.710Z,17.97
2018-11-27T14:05:16.640Z,19.67
2018-11-27T14:07:45.123Z,17.97
2018-11-27T14:10:13.723Z,20.90
2018-11-27T14:12:42.210Z,21.73
2018-11-27T14:15:15.413Z,20.00
2018-11-27T14:17:43.894Z,20.57
2018-11-27T14:20:12.425Z,24.90
2018-11-27T14:22:40.899Z,21.57
2018-11-27T14:25:11.020Z,14.20
2018-11-27T14:27:39.487Z,11.80
2018-11-27T14:30:12.887Z,21.07
2018-11-27T14:32:41.464Z,13.80
2018-11-27T14:35:10.236Z,22.10
2018-11-27T14:37:38.732Z,15.20
2018-11-27T14:40:15.709Z,14.80
2018-11-27T14:42:44.319Z,16.27
2018-11-27T14:50:04.226Z,18.17
2018-11-27T14:52:30.570Z,17.60
2018-11-27T14:54:59.024Z,22.00
2018-11-27T14:57:27.477Z,19.63
2018-11-27T14:59:55.940Z,17.97
2018-11-27T15:02:24.557Z,17.30
2018-11-27T15:04:53.022Z,16.33
2018-11-27T15:07:21.473Z,21.87
2018-11-27T15:09:49.924Z,22.17
2018-11-27T15:12:18.397Z,20.30
2018-11-27T15:14:46.839Z,17.03
2018-11-27T15:17:15.296Z,19.77
2018-11-27T15:19:43.736Z,20.07
2018-11-27T15:22:12.175Z,21.97
2018-11-27T15:24:40.657Z,21.20
2018-11-27T15:27:09.209Z,22.20
2018-11-27T15:29:37.651Z,26.20
2018-11-27T15:32:06.182Z,22.40
2018-11-27T15:34:34.615Z,17.90
2018-11-27T15:37:03.064Z,18.77
2018-11-27T15:39:31.508Z,17.10
2018-11-27T15:41:59.960Z,21.40
2018-11-27T15:44:28.406Z,18.67
2018-11-27T15:46:56.872Z,16.70
2018-11-27T15:49:25.361Z,20.50
2018-11-27T15:51:53.824Z,26.00
2018-11-27T15:54:22.287Z,21.50
2018-11-27T15:56:50.785Z,20.37
2018-11-27T15:59:19.640Z,19.23
2018-11-27T16:01:48.212Z,20.45
2018-11-27T16:04:16.649Z,21.90
2018-11-27T16:06:45.094Z,18.40
2018-11-27T16:09:13.545Z,23.90
2018-11-27T16:11:41.996Z,19.43
2018-11-27T16:14:10.437Z,18.50
2018-11-27T16:16:38.893Z,22.40
2018-11-27T16:19:07.345Z,20.57
2018-11-27T16:21:35.800Z,21.13
2018-11-27T16:24:04.277Z,17.30
2018-11-27T16:26:32.780Z,22.65
2018-11-27T16:29:01.274Z,17.60
2018-11-27T16:31:29.827Z,18.95
2018-11-27T16:33:58.396Z,20.40
2018-11-27T16:36:26.821Z,17.00
2018-11-27T16:38:55.320Z,20.93
2018-11-27T16:41:24.652Z,20.82
2018-11-27T16:43:53.275Z,21.40
2018-11-27T16:46:21.695Z,17.97
2018-11-27T16:48:50.200Z,17.77
2018-11-27T16:51:18.626Z,20.73
2018-11-27T16:53:47.128Z,19.67
2018-11-27T16:56:15.581Z,16.87
2018-11-27T16:58:44.022Z,21.13
2018-11-27T17:01:12.476Z,16.63
2018-11-27T17:03:40.932Z,17.85
2018-11-27T17:06:09.417Z,20.00
2018-11-27T17:08:37.892Z,17.53
2018-11-27T17:11:06.409Z,18.13
2018-11-27T17:13:34.871Z,19.13
2018-11-27T17:16:03.396Z,21.37
2018-11-27T17:18:31.881Z,17.10
2018-11-27T17:21:00.340Z,22.47
2018-11-27T17:23:28.799Z,21.47
2018-11-27T17:25:57.264Z,21.53
2018-11-27T17:28:28.686Z,27.17
2018-11-27T17:31:01.143Z,25.60
2018-11-27T17:33:33.238Z,27.27
2018-11-27T17:36:02.325Z,24.37
2018-11-27T17:38:30.798Z,20.23
2018-11-27T17:40:59.283Z,25.80
2018-11-27T17:43:27.720Z,32.00
2018-11-27T17:45:56.177Z,27.27
2018-11-27T17:48:24.612Z,30.63
2018-11-27T17:50:53.091Z,31.43
2018-11-27T17:53:21.567Z,28.62
2018-11-27T17:55:50.157Z,22.33
2018-11-27T17:58:22.816Z,24.93
2018-11-27T18:00:47.186Z,30.30
2018-11-27T18:03:15.632Z,27.37
2018-11-27T18:05:44.069Z,25.97
2018-11-27T18:08:12.525Z,22.40
2018-11-27T18:10:41.014Z,32.05
2018-11-27T18:13:09.506Z,27.10
2018-11-27T18:15:38.375Z,28.23
2018-11-27T18:18:07.603Z,25.57
2018-11-27T18:20:37.834Z,31.68
2018-11-27T18:23:06.405Z,31.95
2018-11-27T18:25:34.845Z,36.48
2018-11-27T18:28:03.353Z,31.80
2018-11-27T18:30:31.814Z,32.23
2018-11-27T18:33:00.244Z,32.83
2018-11-27T18:35:28.718Z,32.95
2018-11-27T18:37:57.177Z,32.63
2018-11-27T18:40:25.659Z,32.20
2018-11-27T18:42:54.096Z,35.03
2018-11-27T18:45:24.037Z,32.23
2018-11-27T18:47:52.506Z,31.30
2018-11-27T18:50:21.725Z,36.23
2018-11-27T18:52:50.173Z,38.80
2018-11-27T18:55:18.654Z,31.57
2018-11-27T18:57:47.755Z,32.95
2018-11-27T19:00:18.257Z,35.38
2018-11-27T19:02:46.841Z,33.25
2018-11-27T19:05:15.404Z,34.70
2018-11-27T19:07:43.904Z,33.15
2018-11-27T19:10:16.270Z,35.43
2018-11-27T19:12:44.875Z,34.50
2018-11-27T19:15:15.846Z,39.92
2018-11-27T19:17:45.421Z,39.60
2018-11-27T19:20:13.953Z,30.43
2018-11-27T19:22:42.387Z,35.60
2018-11-27T19:25:13.159Z,34.60
2018-11-27T19:27:41.812Z,35.10
2018-11-27T19:30:15.987Z,40.70
2018-11-27T19:32:41.341Z,34.50
2018-11-27T19:35:11.247Z,35.55
2018-11-27T19:37:39.892Z,40.40
2018-11-27T19:40:10.802Z,36.10
2018-11-27T19:42:39.280Z,37.33
2018-11-27T19:45:10.206Z,33.25
2018-11-27T19:47:38.696Z,33.80
2018-11-27T19:50:10.227Z,32.93
2018-11-27T19:52:38.693Z,31.50
2018-11-27T19:55:09.781Z,32.28
2018-11-27T19:57:38.228Z,39.18
2018-11-27T20:00:15.953Z,36.70
2018-11-27T20:02:44.655Z,36.85
2018-11-27T20:05:14.390Z,45.83
2018-11-27T20:07:43.099Z,36.30
2018-11-27T20:10:13.051Z,37.33
2018-11-27T20:12:41.672Z,36.80
2018-11-27T20:15:13.481Z,38.23
2018-11-27T20:17:42.038Z,34.75
2018-11-27T20:20:13.939Z,33.80
2018-11-27T20:22:44.672Z,39.25
2018-11-27T20:25:15.427Z,39.30
2018-11-27T20:27:47.256Z,37.38
2018-11-27T20:30:19.776Z,42.98
2018-11-27T20:32:50.641Z,38.13
2018-11-27T20:35:19.710Z,33.05
2018-11-27T20:37:49.201Z,38.80
2018-11-27T20:40:18.580Z,37.35
2018-11-27T20:42:47.047Z,42.78
2018-11-27T20:45:20.390Z,43.17
2018-11-27T20:47:51.341Z,40.08
2018-11-27T20:50:20.949Z,42.50
2018-11-27T20:52:49.466Z,40.43
2018-11-27T20:55:18.201Z,54.83
2018-11-27T20:57:48.829Z,45.25
2018-11-27T21:00:22.757Z,45.67
2018-11-27T21:02:52.708Z,48.87
2018-11-27T21:05:21.204Z,43.55
2018-11-27T21:07:49.718Z,41.10
2018-11-27T21:10:18.187Z,38.63
2018-11-27T21:12:46.705Z,39.60
2018-11-27T21:15:17.397Z,43.63
2018-11-27T21:17:45.856Z,38.30
2018-11-27T21:20:15.347Z,38.00
2018-11-27T21:22:43.913Z,39.00
2018-11-27T21:25:18.267Z,40.25
2018-11-27T21:28:01.858Z,45.73
2018-11-27T21:30:30.299Z,37.35
2018-11-27T21:32:58.773Z,44.95
2018-11-27T21:35:27.289Z,39.50
2018-11-27T21:37:55.760Z,42.88
2018-11-27T21:40:24.230Z,49.10
2018-11-27T21:42:52.770Z,42.17
2018-11-27T21:45:24.589Z,36.13
2018-11-27T21:47:55.308Z,46.28
2018-11-27T21:50:29.283Z,39.42
2018-11-27T21:52:58.689Z,43.60
2018-11-27T21:55:27.170Z,41.73
2018-11-27T21:57:55.650Z,35.08
2018-11-27T22:00:25.040Z,40.45
2018-11-27T22:02:53.661Z,45.73
2018-11-27T22:05:22.129Z,40.90
2018-11-27T22:07:50.576Z,45.03
2018-11-27T22:10:20.623Z,38.05
2018-11-27T22:12:52.754Z,43.15
2018-11-27T22:15:25.781Z,37.25
2018-11-27T22:17:54.266Z,41.13
2018-11-27T22:20:22.708Z,37.80
2018-11-27T22:22:51.213Z,35.25
2018-11-27T22:25:19.659Z,44.18
2018-11-27T22:27:48.143Z,37.28
2018-11-27T22:30:18.105Z,42.33
2018-11-27T22:32:49.673Z,39.15
2018-11-27T22:35:18.209Z,36.45
2018-11-27T22:37:46.754Z,42.78
2018-11-27T22:40:19.480Z,35.58
2018-11-27T22:42:48.496Z,41.88
2018-11-27T22:45:18.437Z,38.48
2018-11-27T22:47:46.903Z,44.77
2018-11-27T22:50:17.473Z,40.52
2018-11-27T22:52:45.955Z,38.42
2018-11-27T22:55:14.537Z,39.20
2018-11-27T22:57:43.156Z,38.38
2018-11-27T23:00:19.004Z,40.12
2018-11-27T23:02:47.482Z,50.30
2018-11-27T23:05:16.679Z,35.85
2018-11-27T23:07:45.181Z,46.98
2018-11-27T23:10:14.292Z,44.98
2018-11-27T23:12:42.857Z,46.35
2018-11-27T23:15:12.704Z,41.70
2018-11-27T23:17:41.165Z,45.98
2018-11-27T23:20:11.838Z,48.60
2018-11-27T23:22:40.299Z,43.63
2018-11-27T23:25:10.316Z,40.63
2018-11-27T23:27:38.863Z,43.02
2018-11-27T23:30:10.470Z,39.38
2018-11-27T23:32:38.970Z,43.38
2018-11-27T23:35:07.478Z,35.40
2018-11-27T23:37:35.955Z,48.28
2018-11-27T23:40:04.688Z,43.28
2018-11-27T23:42:33.112Z,43.00
2018-11-27T23:45:01.547Z,59.60
2018-11-27T23:47:29.999Z,44.93
2018-11-27T23:49:58.433Z,41.45
2018-11-27T23:52:26.904Z,46.90
2018-11-27T23:54:55.393Z,46.58
2018-11-27T23:57:23.836Z,42.53
2018-11-27T23:59:52.542Z,40.35
